createdAt,value
2017-12-25T00:01:23.548Z,20.42
2017-12-25T00:03:52.684Z,16.92
2017-12-25T00:06:21.857Z,18.12
2017-12-25T00:08:51.060Z,16.70
2017-12-25T00:11:20.213Z,17.95
2017-12-25T00:13:50.130Z,33.25
2017-12-25T00:16:19.303Z,20.40
2017-12-25T00:18:48.521Z,14.02
2017-12-25T00:21:17.636Z,13.95
2017-12-25T00:23:47.784Z,18.83
2017-12-25T00:26:17.214Z,20.83
2017-12-25T00:28:47.094Z,20.88
2017-12-25T00:31:17.383Z,20.08
2017-12-25T00:33:46.602Z,24.08
2017-12-25T00:36:15.812Z,21.85
2017-12-25T00:38:45.981Z,19.30
2017-12-25T00:41:15.192Z,15.68
2017-12-25T00:43:44.390Z,29.95
2017-12-25T00:46:14.299Z,17.23
2017-12-25T00:48:43.465Z,16.10
2017-12-25T00:51:12.933Z,24.40
2017-12-25T00:53:42.137Z,14.07
2017-12-25T00:56:12.182Z,21.00
2017-12-25T00:58:41.334Z,14.75
2017-12-25T01:01:10.578Z,20.37
2017-12-25T01:03:39.744Z,19.98
2017-12-25T01:06:08.888Z,21.55
2017-12-25T01:08:38.313Z,20.35
2017-12-25T01:11:09.096Z,30.45
2017-12-25T01:13:38.215Z,15.68
2017-12-25T01:16:07.413Z,18.17
2017-12-25T01:18:36.512Z,16.20
2017-12-25T01:21:05.609Z,14.45
2017-12-25T01:23:35.523Z,23.30
2017-12-25T01:26:05.416Z,28.55
2017-12-25T01:28:34.566Z,15.07
2017-12-25T01:31:04.603Z,17.08
2017-12-25T01:33:33.729Z,14.02
2017-12-25T01:36:03.450Z,16.27
2017-12-25T01:38:33.557Z,22.10
2017-12-25T01:41:03.478Z,21.75
2017-12-25T01:43:33.381Z,15.45
2017-12-25T01:46:02.576Z,23.60
2017-12-25T01:48:31.691Z,21.60
2017-12-25T01:51:00.842Z,24.25
2017-12-25T01:53:38.333Z,21.02
2017-12-25T01:56:29.061Z,32.45
2017-12-25T01:59:02.333Z,13.20
2017-12-25T02:04:37.934Z,19.23
2017-12-25T02:07:24.955Z,23.65
2017-12-25T02:09:54.154Z,16.50
2017-12-25T02:12:23.266Z,15.82
2017-12-25T02:14:52.726Z,17.73
2017-12-25T02:17:22.846Z,18.30
2017-12-25T02:19:51.970Z,12.57
2017-12-25T02:22:21.074Z,12.60
2017-12-25T02:24:51.081Z,17.95
2017-12-25T02:27:20.189Z,13.32
2017-12-25T02:29:49.312Z,16.27
2017-12-25T02:32:19.585Z,10.38
2017-12-25T02:34:48.703Z,12.98
2017-12-25T02:37:18.084Z,8.27
2017-12-25T02:39:47.300Z,15.32
2017-12-25T02:42:16.530Z,12.93
2017-12-25T02:44:45.694Z,7.85
2017-12-25T02:47:15.652Z,14.18
2017-12-25T02:49:44.824Z,10.40
2017-12-25T02:52:13.969Z,10.63
2017-12-25T02:54:43.983Z,18.85
2017-12-25T02:57:13.212Z,14.82
2017-12-25T02:59:42.425Z,15.55
2017-12-25T03:02:12.881Z,11.32
2017-12-25T03:04:42.833Z,11.93
2017-12-25T03:07:11.970Z,11.05
2017-12-25T03:09:41.642Z,12.40
2017-12-25T03:12:10.737Z,14.30
2017-12-25T03:14:40.738Z,11.10
2017-12-25T03:17:11.898Z,11.45
2017-12-25T03:19:41.044Z,14.20
2017-12-25T03:22:10.992Z,16.98
2017-12-25T03:24:40.706Z,30.55
2017-12-25T03:27:09.835Z,18.60
2017-12-25T03:29:38.985Z,22.13
2017-12-25T03:32:08.822Z,27.60
2017-12-25T03:34:38.715Z,19.33
2017-12-25T03:37:07.868Z,19.33
2017-12-25T03:39:37.805Z,20.60
2017-12-25T03:42:06.954Z,23.00
2017-12-25T03:44:36.113Z,16.70
2017-12-25T03:47:06.165Z,13.98
2017-12-25T03:49:35.302Z,18.83
2017-12-25T03:52:04.409Z,20.80
2017-12-25T03:54:33.825Z,15.15
2017-12-25T03:57:02.945Z,13.77
2017-12-25T03:59:32.041Z,14.32
2017-12-25T04:02:03.421Z,16.92
2017-12-25T04:04:32.578Z,15.60
2017-12-25T04:07:01.685Z,15.15
2017-12-25T04:09:33.687Z,13.48
2017-12-25T04:12:02.793Z,19.50
2017-12-25T04:14:31.906Z,10.73
2017-12-25T04:17:02.030Z,23.38
2017-12-25T04:19:31.153Z,15.25
2017-12-25T04:22:00.250Z,14.80
2017-12-25T04:24:29.914Z,18.27
2017-12-25T04:26:59.103Z,16.85
2017-12-25T04:29:28.216Z,14.93
2017-12-25T04:31:58.113Z,26.42
2017-12-25T04:34:27.230Z,15.18
2017-12-25T04:36:57.137Z,17.52
2017-12-25T04:39:27.053Z,19.95
2017-12-25T04:41:56.941Z,13.57
2017-12-25T04:44:26.041Z,15.95
2017-12-25T04:46:55.542Z,15.63
2017-12-25T04:49:24.641Z,20.27
2017-12-25T04:51:53.736Z,12.48
2017-12-25T04:54:22.873Z,32.80
2017-12-25T04:56:52.158Z,18.87
2017-12-25T04:59:21.275Z,17.80
2017-12-25T05:01:50.868Z,19.17
2017-12-25T05:04:20.849Z,14.13
2017-12-25T05:06:50.019Z,19.33
2017-12-25T05:09:19.202Z,15.10
2017-12-25T05:11:49.130Z,17.30
2017-12-25T05:14:18.311Z,12.65
2017-12-25T05:16:47.685Z,18.75
2017-12-25T05:19:16.933Z,15.00
2017-12-25T05:21:46.119Z,15.55
2017-12-25T05:24:15.812Z,26.10
2017-12-25T05:26:45.011Z,20.42
2017-12-25T05:29:14.222Z,12.32
2017-12-25T05:31:43.697Z,12.82
2017-12-25T05:34:12.821Z,12.20
2017-12-25T05:36:43.016Z,17.42
2017-12-25T05:39:12.221Z,16.33
2017-12-25T05:41:41.420Z,15.85
2017-12-25T05:44:10.582Z,13.60
2017-12-25T05:46:40.575Z,14.93
2017-12-25T05:49:09.727Z,13.20
2017-12-25T05:51:40.472Z,14.85
2017-12-25T05:54:11.902Z,19.42
2017-12-25T05:56:41.024Z,19.02
2017-12-25T05:59:10.889Z,11.10
2017-12-25T06:01:41.749Z,13.05
2017-12-25T06:04:10.869Z,12.18
2017-12-25T06:06:39.989Z,13.62
2017-12-25T06:09:09.904Z,13.62
2017-12-25T06:11:38.996Z,10.15
2017-12-25T06:14:08.115Z,12.63
2017-12-25T06:16:37.272Z,9.50
2017-12-25T06:19:06.402Z,11.60
2017-12-25T06:21:35.721Z,8.85
2017-12-25T06:24:05.766Z,11.68
2017-12-25T06:26:34.920Z,18.60
2017-12-25T06:29:04.047Z,10.07
2017-12-25T06:31:34.975Z,12.82
2017-12-25T06:34:04.069Z,9.48
2017-12-25T06:36:34.759Z,12.18
2017-12-25T06:39:04.061Z,13.02
2017-12-25T06:41:33.160Z,6.43
2017-12-25T06:44:02.258Z,10.18
2017-12-25T06:46:31.978Z,12.23
2017-12-25T06:49:01.089Z,13.50
2017-12-25T06:51:31.300Z,12.63
2017-12-25T06:54:01.345Z,7.60
2017-12-25T06:56:30.446Z,7.30
2017-12-25T06:59:01.116Z,8.00
2017-12-25T07:01:31.215Z,18.75
2017-12-25T07:04:01.082Z,9.35
2017-12-25T07:06:30.225Z,9.25
2017-12-25T07:09:00.477Z,6.85
2017-12-25T07:11:29.602Z,7.15
2017-12-25T07:13:59.503Z,9.07
2017-12-25T07:16:29.046Z,12.80
2017-12-25T07:18:58.218Z,8.15
2017-12-25T07:21:27.331Z,11.35
2017-12-25T07:23:56.759Z,11.60
2017-12-25T07:26:25.875Z,7.50
2017-12-25T07:28:55.199Z,9.60
2017-12-25T07:31:25.143Z,9.32
2017-12-25T07:33:54.465Z,8.70
2017-12-25T07:36:23.586Z,4.78
2017-12-25T07:38:52.737Z,8.38
2017-12-25T07:41:21.861Z,8.30
2017-12-25T07:43:50.979Z,5.93
2017-12-25T07:46:21.735Z,10.85
2017-12-25T07:48:50.882Z,5.22
2017-12-25T07:51:20.032Z,5.90
2017-12-25T07:53:49.313Z,5.72
2017-12-25T07:56:18.436Z,5.10
2017-12-25T07:58:47.637Z,7.62
2017-12-25T08:01:17.141Z,8.00
2017-12-25T08:03:46.338Z,6.45
2017-12-25T08:06:15.534Z,4.82
2017-12-25T08:08:45.139Z,6.37
2017-12-25T08:11:15.030Z,9.73
2017-12-25T08:13:44.249Z,3.40
2017-12-25T08:16:13.809Z,4.00
2017-12-25T08:18:43.769Z,3.83
2017-12-25T08:21:12.975Z,7.22
2017-12-25T08:23:42.376Z,5.03
2017-12-25T08:26:11.578Z,5.30
2017-12-25T08:28:40.654Z,4.57
2017-12-25T08:31:10.114Z,5.00
2017-12-25T08:33:39.232Z,5.05
2017-12-25T08:36:08.350Z,4.53
2017-12-25T08:38:37.758Z,7.70
2017-12-25T08:41:06.902Z,3.35
2017-12-25T08:43:36.030Z,4.47
2017-12-25T08:46:05.194Z,3.78
2017-12-25T08:48:34.304Z,3.00
2017-12-25T08:51:03.571Z,2.97
2017-12-25T08:53:33.884Z,7.65
2017-12-25T08:56:03.794Z,1.98
2017-12-25T08:58:32.914Z,4.22
2017-12-25T09:01:02.071Z,3.72
2017-12-25T09:03:31.180Z,2.58
2017-12-25T09:06:00.767Z,2.47
2017-12-25T09:08:29.924Z,2.50
2017-12-25T09:10:59.033Z,2.62
2017-12-25T09:13:28.158Z,6.70
2017-12-25T09:15:58.074Z,4.20
2017-12-25T09:18:27.229Z,1.92
2017-12-25T09:20:56.337Z,15.93
2017-12-25T09:23:26.374Z,2.47
2017-12-25T09:25:56.401Z,3.87
2017-12-25T09:28:26.306Z,4.53
2017-12-25T09:30:55.970Z,4.40
2017-12-25T09:33:25.854Z,7.18
2017-12-25T09:35:54.987Z,2.35
2017-12-25T09:38:24.859Z,7.78
2017-12-25T09:40:53.993Z,6.60
2017-12-25T09:43:23.129Z,6.85
2017-12-25T09:45:52.676Z,4.87
2017-12-25T09:48:21.803Z,6.18
2017-12-25T09:50:50.925Z,3.75
2017-12-25T09:53:20.114Z,12.68
2017-12-25T09:55:49.245Z,1.87
2017-12-25T09:58:18.379Z,1.67
2017-12-25T10:00:47.566Z,1.80
2017-12-25T10:03:16.790Z,3.85
2017-12-25T10:05:45.991Z,2.10
2017-12-25T10:08:15.775Z,4.25
2017-12-25T10:10:45.688Z,8.98
2017-12-25T10:13:14.888Z,1.70
2017-12-25T10:15:44.114Z,2.10
2017-12-25T10:18:13.416Z,2.75
2017-12-25T10:20:42.617Z,5.80
2017-12-25T10:23:12.538Z,4.87
2017-12-25T10:25:42.462Z,2.97
2017-12-25T10:28:12.040Z,3.97
2017-12-25T10:30:41.306Z,2.45
2017-12-25T10:33:10.439Z,3.87
2017-12-25T10:35:40.348Z,2.00
2017-12-25T10:38:10.360Z,1.30
2017-12-25T10:40:39.474Z,8.52
2017-12-25T10:43:08.593Z,1.77
2017-12-25T10:45:39.305Z,6.18
2017-12-25T10:48:08.452Z,6.32
2017-12-25T10:50:37.580Z,3.65
2017-12-25T10:53:07.572Z,6.07
2017-12-25T10:55:36.705Z,7.03
2017-12-25T10:58:05.889Z,7.62
2017-12-25T11:00:42.663Z,8.20
2017-12-25T11:03:11.862Z,8.73
2017-12-25T11:05:40.992Z,4.32
2017-12-25T11:08:10.189Z,2.12
2017-12-25T11:10:39.383Z,4.12
2017-12-25T11:13:08.511Z,7.90
2017-12-25T11:15:37.675Z,3.00
2017-12-25T11:18:07.550Z,5.95
2017-12-25T11:20:36.645Z,5.80
2017-12-25T11:23:05.797Z,8.43
2017-12-25T11:25:34.920Z,9.40
2017-12-25T11:28:04.032Z,13.73
2017-12-25T11:30:33.291Z,7.57
2017-12-25T11:33:02.413Z,12.65
2017-12-25T11:35:31.534Z,7.32
2017-12-25T11:38:00.856Z,11.98
2017-12-25T11:40:30.001Z,12.13
2017-12-25T11:42:59.913Z,8.45
2017-12-25T11:45:29.417Z,15.90
2017-12-25T11:47:58.541Z,9.05
2017-12-25T11:50:28.440Z,9.23
2017-12-25T11:52:57.752Z,9.25
2017-12-25T11:55:26.923Z,11.45
2017-12-25T11:57:56.113Z,9.77
2017-12-25T12:00:25.233Z,12.23
2017-12-25T12:02:55.122Z,10.23
2017-12-25T12:05:24.294Z,8.75
2017-12-25T12:07:53.800Z,7.00
2017-12-25T12:10:22.922Z,7.82
2017-12-25T12:12:52.070Z,10.13
2017-12-25T12:15:22.062Z,7.68
2017-12-25T12:17:51.186Z,11.70
2017-12-25T12:20:20.386Z,7.85
2017-12-25T12:22:49.726Z,9.35
2017-12-25T12:25:18.848Z,8.75
2017-12-25T12:27:48.007Z,11.77
2017-12-25T12:30:17.628Z,13.45
2017-12-25T12:32:46.799Z,10.85
2017-12-25T12:35:16.770Z,10.30
2017-12-25T12:37:46.293Z,13.95
2017-12-25T12:40:15.460Z,11.93
2017-12-25T12:42:45.627Z,13.48
2017-12-25T12:45:14.862Z,11.88
2017-12-25T12:47:44.015Z,13.15
2017-12-25T12:50:13.995Z,14.45
2017-12-25T12:52:43.191Z,21.40
2017-12-25T12:55:12.309Z,12.13
2017-12-25T12:57:41.459Z,16.25
2017-12-25T13:00:13.167Z,18.77
2017-12-25T13:02:42.340Z,17.62
2017-12-25T13:05:11.564Z,14.07
2017-12-25T13:07:41.884Z,11.85
2017-12-25T13:10:11.036Z,14.63
2017-12-25T13:12:40.196Z,18.40
2017-12-25T13:15:09.635Z,12.95
2017-12-25T13:17:40.407Z,14.13
2017-12-25T13:20:09.580Z,12.45
2017-12-25T13:22:39.599Z,13.38
2017-12-25T13:25:08.727Z,11.32
2017-12-25T13:27:37.863Z,15.00
2017-12-25T13:30:08.119Z,13.43
2017-12-25T13:32:37.268Z,14.05
2017-12-25T13:35:06.392Z,12.48
2017-12-25T13:37:35.946Z,12.37
2017-12-25T13:40:05.282Z,9.07
2017-12-25T13:42:34.620Z,9.45
2017-12-25T13:45:04.749Z,9.60
2017-12-25T13:47:33.882Z,9.80
2017-12-25T13:50:03.028Z,8.57
2017-12-25T13:52:32.501Z,7.85
2017-12-25T13:55:01.670Z,8.40
2017-12-25T13:57:31.806Z,8.45
2017-12-25T14:00:01.346Z,7.18
2017-12-25T14:02:31.328Z,9.50
2017-12-25T14:05:00.499Z,13.48
2017-12-25T14:07:31.333Z,7.05
2017-12-25T14:10:00.494Z,6.57
2017-12-25T14:12:29.609Z,9.57
2017-12-25T14:14:58.816Z,7.40
2017-12-25T14:17:28.935Z,9.43
2017-12-25T14:19:58.074Z,5.20
2017-12-25T14:22:27.242Z,6.80
2017-12-25T14:24:57.136Z,16.42
2017-12-25T14:27:26.854Z,6.18
2017-12-25T14:29:57.567Z,6.10
2017-12-25T14:32:26.783Z,8.95
2017-12-25T14:34:55.942Z,6.57
2017-12-25T14:37:25.898Z,4.85
2017-12-25T14:39:55.029Z,5.68
2017-12-25T14:42:24.193Z,5.72
2017-12-25T14:44:53.407Z,4.87
2017-12-25T14:47:22.546Z,6.30
2017-12-25T14:49:51.650Z,5.20
2017-12-25T14:52:21.225Z,5.80
2017-12-25T14:54:50.346Z,5.93
2017-12-25T14:57:19.532Z,6.35
2017-12-25T14:59:49.566Z,4.30
2017-12-25T15:02:18.844Z,5.47
2017-12-25T15:04:47.978Z,4.97
2017-12-25T15:07:17.414Z,4.50
2017-12-25T15:09:47.446Z,6.45
2017-12-25T15:12:17.465Z,4.90
2017-12-25T15:14:46.954Z,7.78
2017-12-25T15:17:16.188Z,5.72
2017-12-25T15:19:46.225Z,5.55
2017-12-25T15:22:16.278Z,5.22
2017-12-25T15:24:45.489Z,4.60
2017-12-25T15:27:15.433Z,8.07
2017-12-25T15:29:44.957Z,6.32
2017-12-25T15:32:14.143Z,6.22
2017-12-25T15:34:43.349Z,5.60
2017-12-25T15:37:13.270Z,5.60
2017-12-25T15:39:42.470Z,8.90
2017-12-25T15:42:12.381Z,5.43
2017-12-25T15:44:42.823Z,6.20
2017-12-25T15:47:12.073Z,5.03
2017-12-25T15:49:41.215Z,5.30
2017-12-25T15:52:10.594Z,5.32
2017-12-25T15:54:40.475Z,6.82
2017-12-25T15:57:09.606Z,5.43
2017-12-25T15:59:38.767Z,5.22
2017-12-25T16:02:07.863Z,7.40
2017-12-25T16:04:36.954Z,6.15
2017-12-25T16:07:07.278Z,5.10
2017-12-25T16:09:36.486Z,5.72
2017-12-25T16:12:05.593Z,4.78
2017-12-25T16:14:35.534Z,9.23
2017-12-25T16:17:05.414Z,4.87
2017-12-25T16:19:34.532Z,5.15
2017-12-25T16:22:04.886Z,4.93
2017-12-25T16:24:34.006Z,8.30
2017-12-25T16:27:03.109Z,6.22
2017-12-25T16:29:32.281Z,4.07
2017-12-25T16:32:01.403Z,3.35
2017-12-25T16:34:30.508Z,3.33
2017-12-25T16:36:59.671Z,4.05
2017-12-25T16:39:29.541Z,3.53
2017-12-25T16:41:58.716Z,2.60
2017-12-25T16:44:27.890Z,2.92
2017-12-25T16:46:57.011Z,4.85
2017-12-25T16:49:26.110Z,2.42
2017-12-25T16:51:55.274Z,3.17
2017-12-25T16:54:24.381Z,2.40
2017-12-25T16:56:53.491Z,4.30
2017-12-25T16:59:22.666Z,3.87
2017-12-25T17:01:51.814Z,7.12
2017-12-25T17:04:20.993Z,3.37
2017-12-25T17:06:50.958Z,3.00
2017-12-25T17:09:20.130Z,2.92
2017-12-25T17:11:49.312Z,3.08
2017-12-25T17:14:18.610Z,3.87
2017-12-25T17:16:47.763Z,3.72
2017-12-25T17:19:17.816Z,3.03
2017-12-25T17:21:47.340Z,3.78
2017-12-25T17:24:16.481Z,3.35
2017-12-25T17:26:45.605Z,4.50
2017-12-25T17:29:15.588Z,3.70
2017-12-25T17:31:44.845Z,4.70
2017-12-25T17:34:13.995Z,6.82
2017-12-25T17:36:43.614Z,4.03
2017-12-25T17:39:12.820Z,6.50
2017-12-25T17:41:42.220Z,3.53
2017-12-25T17:44:11.448Z,4.45
2017-12-25T17:46:41.655Z,4.25
2017-12-25T17:49:10.809Z,4.35
2017-12-25T17:51:40.010Z,5.00
2017-12-25T17:54:10.148Z,4.75
2017-12-25T17:56:39.318Z,4.70
2017-12-25T17:59:09.708Z,6.47
2017-12-25T18:01:38.879Z,7.87
2017-12-25T18:04:08.935Z,5.87
2017-12-25T18:06:38.522Z,4.82
2017-12-25T18:09:07.847Z,13.65
2017-12-25T18:11:38.193Z,8.45
2017-12-25T18:14:08.143Z,6.65
2017-12-25T18:16:37.246Z,9.20
2017-12-25T18:19:06.366Z,6.65
2017-12-25T18:21:35.609Z,6.87
2017-12-25T18:24:04.721Z,7.37
2017-12-25T18:26:33.835Z,6.68
2017-12-25T18:29:04.243Z,9.07
2017-12-25T18:31:33.639Z,5.87
2017-12-25T18:34:02.814Z,7.07
2017-12-25T18:36:32.579Z,8.02
2017-12-25T18:39:01.671Z,5.85
2017-12-25T18:41:30.780Z,7.82
2017-12-25T18:44:00.054Z,5.85
2017-12-25T18:46:29.153Z,8.90
2017-12-25T18:48:58.258Z,10.68
2017-12-25T18:51:28.355Z,5.28
2017-12-25T18:53:57.465Z,5.47
2017-12-25T18:56:26.567Z,5.10
2017-12-25T18:58:55.729Z,6.20
2017-12-25T19:01:24.824Z,4.25
2017-12-25T19:03:53.969Z,3.42
2017-12-25T19:06:24.681Z,4.05
2017-12-25T19:08:53.795Z,4.82
2017-12-25T19:11:22.914Z,3.80
2017-12-25T19:13:53.132Z,3.90
2017-12-25T19:16:22.230Z,3.67
2017-12-25T19:18:51.318Z,4.55
2017-12-25T19:21:20.470Z,3.60
2017-12-25T19:23:49.565Z,3.28
2017-12-25T19:26:18.710Z,4.87
2017-12-25T19:28:49.294Z,4.50
2017-12-25T19:31:18.825Z,4.15
2017-12-25T19:33:48.072Z,4.45
2017-12-25T19:36:18.120Z,3.50
2017-12-25T19:38:47.321Z,3.45
2017-12-25T19:41:16.584Z,3.92
2017-12-25T19:43:46.576Z,4.95
2017-12-25T19:46:16.520Z,4.85
2017-12-25T19:48:45.741Z,5.53
2017-12-25T19:51:15.761Z,4.12
2017-12-25T19:53:44.908Z,4.55
2017-12-25T19:56:14.890Z,4.78
2017-12-25T19:58:44.174Z,7.40
2017-12-25T20:01:13.445Z,4.43
2017-12-25T20:03:43.581Z,5.00
2017-12-25T20:06:15.149Z,3.53
2017-12-25T20:08:44.281Z,3.17
2017-12-25T20:11:13.530Z,3.78
2017-12-25T20:13:42.706Z,3.50
2017-12-25T20:16:11.877Z,4.40
2017-12-25T20:18:41.007Z,3.83
2017-12-25T20:21:10.166Z,4.47
2017-12-25T20:23:40.089Z,4.50
2017-12-25T20:26:09.998Z,5.10
2017-12-25T20:28:40.226Z,5.78
2017-12-25T20:31:09.346Z,5.43
2017-12-25T20:33:38.486Z,6.18
2017-12-25T20:36:08.032Z,11.32
2017-12-25T20:38:37.129Z,13.50
2017-12-25T20:41:06.264Z,11.57
2017-12-25T20:43:35.396Z,9.43
2017-12-25T20:46:04.555Z,13.80
2017-12-25T20:48:33.676Z,9.15
2017-12-25T20:51:02.839Z,12.25
2017-12-25T20:53:32.717Z,9.45
2017-12-25T20:56:01.848Z,9.52
2017-12-25T20:58:31.003Z,26.02
2017-12-25T21:01:00.107Z,8.70
2017-12-25T21:03:30.007Z,13.70
2017-12-25T21:06:00.743Z,10.68
2017-12-25T21:08:29.888Z,22.10
2017-12-25T21:10:59.038Z,12.57
2017-12-25T21:13:28.486Z,10.77
2017-12-25T21:15:58.245Z,9.50
2017-12-25T21:18:28.363Z,10.52
2017-12-25T21:20:59.184Z,12.02
2017-12-25T21:23:28.492Z,8.48
2017-12-25T21:25:58.147Z,10.02
2017-12-25T21:28:28.154Z,10.15
2017-12-25T21:30:57.532Z,13.73
2017-12-25T21:33:26.939Z,9.15
2017-12-25T21:35:56.302Z,10.55
2017-12-25T21:38:25.473Z,11.90
2017-12-25T21:40:54.797Z,7.40
2017-12-25T21:43:24.959Z,6.28
2017-12-25T21:45:54.220Z,10.70
2017-12-25T21:48:23.522Z,7.10
2017-12-25T21:50:52.850Z,7.43
2017-12-25T21:53:22.187Z,9.40
2017-12-25T21:55:51.460Z,10.48
2017-12-25T21:58:20.827Z,8.80
2017-12-25T22:00:50.165Z,6.95
2017-12-25T22:03:20.302Z,10.90
2017-12-25T22:05:50.859Z,10.00
2017-12-25T22:08:19.977Z,10.77
2017-12-25T22:10:49.877Z,15.23
2017-12-25T22:13:19.858Z,11.95
2017-12-25T22:15:49.001Z,10.48
2017-12-25T22:18:18.201Z,12.95
2017-12-25T22:20:48.174Z,13.75
2017-12-25T22:23:17.364Z,17.55
2017-12-25T22:25:46.615Z,13.93
2017-12-25T22:28:17.890Z,13.57
2017-12-25T22:30:47.088Z,12.65
2017-12-25T22:33:16.261Z,13.95
2017-12-25T22:35:45.571Z,13.27
2017-12-25T22:38:15.660Z,16.85
2017-12-25T22:40:45.787Z,12.37
2017-12-25T22:43:15.333Z,15.05
2017-12-25T22:45:44.563Z,16.27
2017-12-25T22:48:15.105Z,20.52
2017-12-25T22:50:45.463Z,13.55
2017-12-25T22:53:14.995Z,14.93
2017-12-25T22:55:44.402Z,16.27
2017-12-25T22:58:14.317Z,16.23
2017-12-25T23:00:43.525Z,19.95
2017-12-25T23:03:12.743Z,17.15
2017-12-25T23:05:41.993Z,17.77
2017-12-25T23:08:11.181Z,13.75
2017-12-25T23:10:40.297Z,16.00
2017-12-25T23:13:09.452Z,16.90
2017-12-25T23:15:38.565Z,17.08
2017-12-25T23:18:07.773Z,19.37
2017-12-25T23:20:38.199Z,16.98
2017-12-25T23:23:07.333Z,20.40
2017-12-25T23:25:37.272Z,19.52
2017-12-25T23:28:07.742Z,18.90
2017-12-25T23:30:37.135Z,18.05
2017-12-25T23:33:07.155Z,18.67
2017-12-25T23:35:37.095Z,18.23
2017-12-25T23:38:07.001Z,17.33
2017-12-25T23:40:36.175Z,17.00
2017-12-25T23:43:05.384Z,19.50
2017-12-25T23:45:34.493Z,21.65
2017-12-25T23:48:03.616Z,19.80
2017-12-25T23:50:32.786Z,19.70
2017-12-25T23:53:01.887Z,18.30
2017-12-25T23:55:30.988Z,16.67
2017-12-25T23:58:00.201Z,21.80
